CheckWX is a tool to help pilots better visualize weather data.  It is not intended as a substitute for an official pre-flight weather briefing.

00:20:31 UTC

KLMT METAR
Crater Lake-Klamath Regional Airport
Klamath Falls, Oregon, USA
Current

28 mins ago

KLMT 192353Z 35005KT 10SM CLR 01/M03 A3014 RMK AO2 SLP234 I6003 T00061028 10011 21033 56020
Observed
Jan-19 @ 23:53 UTC
Wind
  • 350° at 5 KTS
Visibility
10 SM
Flight Rules
VFR
Cloud Levels
  • Clear skies
Temperature
C / 34°F
Dewpoint
-3°C / 27°F
Humidity
75%
Altimeter
30.14" Hg
Pressure
1020.62 hPa
Previous

1 hour ago

KLMT 192253Z 33007KT 10SM CLR 01/M03 A3015 RMK AO2 SLP239 T00061028
Observed
Jan-19 @ 22:53 UTC
Wind
  • 330° at 7 KTS
Visibility
10 SM
Flight Rules
VFR
Cloud Levels
  • Clear skies
Temperature
C / 34°F
Dewpoint
-3°C / 27°F
Humidity
75%
Altimeter
30.15" Hg
Pressure
1021.02 hPa
Previous

2 hours ago

KLMT 192153Z 00000KT 10SM CLR M01/M03 A3017 RMK AO2 SLP244 T10111028
Observed
Jan-19 @ 21:53 UTC
Visibility
10 SM
Flight Rules
VFR
Cloud Levels
  • Clear skies
Temperature
-1°C / 30°F
Dewpoint
-3°C / 27°F
Humidity
86%
Altimeter
30.17" Hg
Pressure
1021.72 hPa